createdAt,value
2022-09-20T00:01:55.073Z,0.68
2022-09-20T00:04:21.432Z,0.65
2022-09-20T00:06:47.781Z,0.55
2022-09-20T00:09:14.148Z,0.57
2022-09-20T00:11:40.513Z,0.58
2022-09-20T00:14:06.877Z,0.63
2022-09-20T00:16:33.338Z,0.75
2022-09-20T00:18:59.777Z,0.70
2022-09-20T00:21:26.142Z,0.67
2022-09-20T00:23:52.515Z,0.76
2022-09-20T00:26:18.875Z,0.57
2022-09-20T00:28:45.240Z,0.61
2022-09-20T00:31:11.602Z,0.62
2022-09-20T00:33:37.959Z,0.63
2022-09-20T00:36:04.333Z,0.56
2022-09-20T00:38:30.680Z,0.66
2022-09-20T00:40:57.025Z,0.64
2022-09-20T00:43:23.390Z,0.56
2022-09-20T00:45:49.809Z,0.57
2022-09-20T00:48:16.205Z,0.67
2022-09-20T00:50:42.570Z,0.75
2022-09-20T00:53:08.919Z,0.72
2022-09-20T00:55:35.277Z,0.59
2022-09-20T00:58:01.643Z,0.59
2022-09-20T01:00:27.991Z,0.59
2022-09-20T01:02:54.361Z,0.71
2022-09-20T01:05:20.711Z,0.67
2022-09-20T01:07:47.167Z,0.65
2022-09-20T01:10:13.526Z,0.63
2022-09-20T01:12:39.881Z,0.66
2022-09-20T01:15:06.239Z,0.57
2022-09-20T01:17:32.596Z,0.68
2022-09-20T01:19:58.948Z,0.63
2022-09-20T01:22:25.314Z,0.71
2022-09-20T01:24:51.674Z,0.68
2022-09-20T01:27:18.023Z,0.66
2022-09-20T01:29:44.386Z,0.61
2022-09-20T01:32:10.845Z,0.64
2022-09-20T01:34:37.243Z,0.67
2022-09-20T01:37:03.624Z,0.50
2022-09-20T01:39:29.976Z,0.65
2022-09-20T01:41:56.323Z,0.65
2022-09-20T01:44:22.688Z,0.63
2022-09-20T01:46:49.040Z,0.60
2022-09-20T01:49:15.417Z,0.61
2022-09-20T01:51:41.785Z,0.64
2022-09-20T01:54:08.141Z,0.66
2022-09-20T01:56:34.500Z,0.60
2022-09-20T01:59:22.615Z,0.58
2022-09-20T02:01:47.196Z,0.47
2022-09-20T02:04:13.558Z,0.52
2022-09-20T02:06:39.907Z,0.49
2022-09-20T02:09:06.347Z,0.62
2022-09-20T02:11:32.711Z,0.59
2022-09-20T02:13:59.075Z,0.60
2022-09-20T02:16:25.456Z,0.62
2022-09-20T02:18:51.818Z,0.60
2022-09-20T02:21:18.194Z,0.52
2022-09-20T02:23:44.587Z,0.50
2022-09-20T02:26:10.936Z,0.65
2022-09-20T02:28:37.306Z,0.66
2022-09-20T02:31:03.675Z,0.60
2022-09-20T02:33:30.033Z,0.57
2022-09-20T02:35:56.388Z,0.63
2022-09-20T02:38:22.763Z,0.67
2022-09-20T02:40:49.119Z,0.58
2022-09-20T02:43:15.482Z,0.70
2022-09-20T02:45:41.905Z,0.65
2022-09-20T02:48:08.324Z,0.65
2022-09-20T02:50:34.675Z,0.61
2022-09-20T02:53:01.036Z,0.51
2022-09-20T02:55:27.392Z,0.65
2022-09-20T02:57:53.746Z,0.59
2022-09-20T03:00:20.114Z,0.67
2022-09-20T03:02:46.470Z,0.65
2022-09-20T03:05:12.840Z,0.60
2022-09-20T03:07:39.207Z,0.55
2022-09-20T03:10:05.585Z,0.61
2022-09-20T03:12:31.944Z,0.49
2022-09-20T03:14:58.296Z,0.64
2022-09-20T03:17:24.657Z,0.71
2022-09-20T03:19:51.024Z,0.60
2022-09-20T03:22:17.376Z,0.59
2022-09-20T03:24:43.727Z,0.60
2022-09-20T03:27:10.092Z,0.57
2022-09-20T03:29:36.449Z,0.59
2022-09-20T03:32:02.880Z,0.66
2022-09-20T03:34:29.251Z,0.55
2022-09-20T03:36:55.605Z,0.47
2022-09-20T03:39:21.969Z,0.49
2022-09-20T03:41:48.321Z,0.58
2022-09-20T03:44:14.685Z,0.61
2022-09-20T03:46:41.054Z,0.59
2022-09-20T03:49:07.416Z,0.47
2022-09-20T03:51:34.429Z,0.57
2022-09-20T03:54:00.917Z,0.64
2022-09-20T03:56:27.271Z,0.83
2022-09-20T03:58:53.630Z,0.70
2022-09-20T04:01:20.020Z,0.61
2022-09-20T04:03:46.402Z,0.58
2022-09-20T04:06:12.760Z,0.53
2022-09-20T04:08:40.353Z,0.57
2022-09-20T04:11:06.888Z,0.60
2022-09-20T04:13:33.238Z,0.61
2022-09-20T04:15:59.602Z,0.52
2022-09-20T04:18:25.997Z,0.59
2022-09-20T04:20:52.375Z,0.66
2022-09-20T04:23:18.738Z,0.58
2022-09-20T04:25:45.088Z,0.56
2022-09-20T04:28:11.542Z,0.59
2022-09-20T04:30:37.915Z,0.64
2022-09-20T04:33:04.267Z,0.63
2022-09-20T04:35:30.628Z,0.69
2022-09-20T04:37:56.990Z,0.64
2022-09-20T04:40:23.427Z,0.62
2022-09-20T04:42:49.828Z,0.66
2022-09-20T04:45:16.193Z,0.61
2022-09-20T04:47:42.561Z,0.69
2022-09-20T04:50:08.913Z,0.58
2022-09-20T04:52:35.279Z,0.60
2022-09-20T04:55:01.626Z,0.60
2022-09-20T04:57:27.981Z,0.60
2022-09-20T04:59:54.357Z,0.49
2022-09-20T05:02:20.756Z,0.66
2022-09-20T05:04:47.121Z,0.64
2022-09-20T05:07:13.479Z,0.65
2022-09-20T05:09:39.840Z,0.64
2022-09-20T05:12:06.197Z,0.65
2022-09-20T05:14:32.555Z,0.63
2022-09-20T05:16:58.979Z,0.61
2022-09-20T05:19:25.380Z,0.67
2022-09-20T05:21:51.740Z,0.65
2022-09-20T05:24:18.096Z,0.74
2022-09-20T05:26:44.459Z,0.61
2022-09-20T05:29:10.826Z,0.64
2022-09-20T05:31:37.268Z,0.50
2022-09-20T05:34:03.650Z,0.60
2022-09-20T05:36:33.770Z,0.70
2022-09-20T05:39:03.402Z,0.61
2022-09-20T05:41:30.184Z,0.61
2022-09-20T05:43:56.537Z,0.63
2022-09-20T05:46:22.909Z,0.62
2022-09-20T05:48:49.266Z,0.69
2022-09-20T05:51:15.650Z,0.64
2022-09-20T05:53:42.004Z,0.64
2022-09-20T05:56:08.360Z,0.65
2022-09-20T05:58:34.719Z,0.63
2022-09-20T06:01:01.102Z,0.62
2022-09-20T06:03:27.486Z,0.78
2022-09-20T06:05:53.855Z,0.76
2022-09-20T06:08:20.200Z,0.65
2022-09-20T06:10:46.548Z,0.78
2022-09-20T06:13:12.911Z,0.76
2022-09-20T06:15:39.274Z,0.64
2022-09-20T06:18:05.644Z,0.71
2022-09-20T06:20:32.005Z,0.72
2022-09-20T06:22:58.375Z,0.66
2022-09-20T06:25:24.733Z,0.68
2022-09-20T06:27:51.093Z,0.62
2022-09-20T06:30:17.558Z,0.72
2022-09-20T06:32:43.916Z,0.65
2022-09-20T06:35:10.277Z,0.65
2022-09-20T06:37:36.635Z,0.62
2022-09-20T06:40:03.047Z,0.76
2022-09-20T06:42:29.429Z,0.66
2022-09-20T06:44:55.879Z,0.62
2022-09-20T06:47:22.224Z,0.67
2022-09-20T06:49:48.568Z,0.81
2022-09-20T06:52:14.928Z,0.78
2022-09-20T06:54:41.292Z,0.79
2022-09-20T06:57:07.648Z,0.81
2022-09-20T06:59:34.002Z,1.02
2022-09-20T07:02:00.452Z,0.92
2022-09-20T07:04:26.856Z,1.13
2022-09-20T07:06:53.213Z,1.22
2022-09-20T07:09:19.584Z,1.34
2022-09-20T07:11:45.942Z,1.69
2022-09-20T07:14:12.311Z,2.15
2022-09-20T07:16:38.750Z,2.10
2022-09-20T07:19:05.141Z,2.25
2022-09-20T07:21:31.513Z,2.57
2022-09-20T07:23:57.890Z,2.88
2022-09-20T07:26:24.254Z,3.21
2022-09-20T07:28:50.624Z,3.31
2022-09-20T07:31:17.033Z,3.60
2022-09-20T07:33:43.446Z,3.89
2022-09-20T07:36:09.824Z,4.00
2022-09-20T07:38:36.176Z,4.34
2022-09-20T07:41:02.549Z,4.65
2022-09-20T07:43:28.912Z,4.93
2022-09-20T07:45:55.327Z,5.02
2022-09-20T07:48:21.711Z,5.35
2022-09-20T07:50:48.077Z,5.54
2022-09-20T07:53:14.549Z,6.26
2022-09-20T07:55:40.921Z,6.19
2022-09-20T07:58:07.285Z,6.39
2022-09-20T08:00:33.666Z,6.76
2022-09-20T08:03:00.024Z,7.48
2022-09-20T08:05:26.385Z,7.70
2022-09-20T08:07:52.758Z,7.71
2022-09-20T08:10:19.116Z,8.37
2022-09-20T08:15:31.829Z,9.26
2022-09-20T08:17:58.183Z,9.93
2022-09-20T08:20:24.557Z,10.36
2022-09-20T08:23:12.597Z,10.90
2022-09-20T08:25:37.286Z,11.97
2022-09-20T08:28:03.649Z,11.76
2022-09-20T08:30:30.023Z,12.42
2022-09-20T08:32:56.396Z,12.63
2022-09-20T08:35:22.768Z,12.82
2022-09-20T08:37:49.379Z,12.97
2022-09-20T08:40:15.844Z,13.38
2022-09-20T08:42:44.693Z,13.06
2022-09-20T08:45:11.363Z,14.20
2022-09-20T08:47:37.780Z,14.28
2022-09-20T08:50:11.763Z,14.65
2022-09-20T08:52:38.692Z,14.30
2022-09-20T08:55:07.492Z,15.24
2022-09-20T08:57:34.272Z,15.17
2022-09-20T09:00:00.642Z,15.47
2022-09-20T09:02:27.042Z,15.01
2022-09-20T09:04:53.441Z,15.75
2022-09-20T09:07:19.820Z,15.80
2022-09-20T09:09:46.195Z,15.80
2022-09-20T09:12:12.571Z,16.56
2022-09-20T09:14:38.931Z,15.74
2022-09-20T09:17:05.356Z,16.21
2022-09-20T09:19:34.697Z,16.93
2022-09-20T09:22:01.085Z,16.65
2022-09-20T09:24:27.457Z,16.25
2022-09-20T09:26:53.830Z,16.70
2022-09-20T09:29:20.212Z,16.64
2022-09-20T09:31:46.638Z,17.38
2022-09-20T09:34:13.060Z,17.23
2022-09-20T09:36:39.441Z,17.47
2022-09-20T09:39:05.826Z,17.29
2022-09-20T09:41:32.202Z,17.37
2022-09-20T09:43:58.569Z,17.36
2022-09-20T09:46:25.036Z,17.77
2022-09-20T09:48:51.437Z,17.48
2022-09-20T09:51:17.822Z,18.07
2022-09-20T09:53:44.217Z,18.13
2022-09-20T09:56:14.006Z,18.37
2022-09-20T09:58:40.754Z,18.31
2022-09-20T10:01:07.158Z,17.24
2022-09-20T10:03:33.569Z,16.40
2022-09-20T10:05:59.957Z,16.59
2022-09-20T10:08:26.327Z,16.84
2022-09-20T10:10:52.702Z,16.88
2022-09-20T10:13:19.103Z,17.18
2022-09-20T10:15:45.500Z,17.33
2022-09-20T10:18:11.876Z,17.73
2022-09-20T10:20:38.254Z,17.47
2022-09-20T10:23:39.465Z,18.21
2022-09-20T10:25:50.999Z,17.26
2022-09-20T10:28:17.376Z,17.26
2022-09-20T10:30:43.804Z,17.71
2022-09-20T10:33:10.213Z,16.81
2022-09-20T10:35:36.609Z,17.46
2022-09-20T10:38:02.981Z,17.51
2022-09-20T10:40:29.483Z,18.35
2022-09-20T10:42:55.875Z,17.57
2022-09-20T10:45:53.317Z,17.51
2022-09-20T10:48:08.627Z,17.97
2022-09-20T10:50:35.001Z,18.09
2022-09-20T10:53:01.665Z,17.63
2022-09-20T10:55:28.181Z,17.71
2022-09-20T10:57:54.551Z,18.41
2022-09-20T11:00:20.911Z,18.28
2022-09-20T11:02:47.283Z,18.21
2022-09-20T11:05:13.643Z,18.64
2022-09-20T11:07:40.013Z,18.91
2022-09-20T11:10:06.533Z,19.15
2022-09-20T11:12:32.966Z,19.78
2022-09-20T11:14:59.335Z,20.63
2022-09-20T11:17:25.814Z,20.61
2022-09-20T11:19:52.183Z,21.63
2022-09-20T11:22:18.573Z,22.30
2022-09-20T11:24:44.966Z,22.74
2022-09-20T11:27:11.331Z,23.03
2022-09-20T11:29:37.705Z,23.88
2022-09-20T11:32:04.152Z,23.78
2022-09-20T11:34:30.572Z,23.48
2022-09-20T11:36:56.936Z,23.95
2022-09-20T11:39:23.317Z,23.82
2022-09-20T11:41:49.693Z,25.00
2022-09-20T11:44:16.067Z,25.81
2022-09-20T11:46:42.441Z,25.65
2022-09-20T11:49:08.813Z,26.32
2022-09-20T11:51:35.201Z,26.94
2022-09-20T11:54:01.575Z,27.12
2022-09-20T11:56:27.951Z,27.97
2022-09-20T11:58:54.339Z,28.22
2022-09-20T12:01:23.057Z,27.78
2022-09-20T12:04:04.094Z,27.53
2022-09-20T12:06:38.990Z,28.32
2022-09-20T12:09:05.361Z,29.39
2022-09-20T12:11:31.758Z,29.34
2022-09-20T12:13:58.134Z,28.50
2022-09-20T12:16:24.527Z,29.56
2022-09-20T12:18:50.932Z,29.38
2022-09-20T12:21:17.425Z,29.52
2022-09-20T12:23:43.882Z,29.82
2022-09-20T12:26:10.251Z,30.00
2022-09-20T12:28:36.631Z,30.33
2022-09-20T12:31:03.007Z,29.44
2022-09-20T12:33:29.372Z,30.17
2022-09-20T12:35:55.764Z,30.85
2022-09-20T12:38:22.284Z,30.97
2022-09-20T12:40:48.684Z,31.50
2022-09-20T12:43:15.053Z,31.75
2022-09-20T12:45:41.478Z,32.47
2022-09-20T12:48:07.857Z,32.93
2022-09-20T12:50:34.263Z,33.04
2022-09-20T12:53:00.693Z,32.61
2022-09-20T12:55:27.093Z,33.23
2022-09-20T12:57:53.463Z,34.28
2022-09-20T13:00:19.833Z,34.43
2022-09-20T13:02:46.199Z,34.66
2022-09-20T13:05:12.579Z,35.05
2022-09-20T13:07:43.361Z,34.35
2022-09-20T13:10:10.288Z,34.76
2022-09-20T13:12:36.673Z,35.18
2022-09-20T13:15:03.069Z,35.71
2022-09-20T13:17:29.496Z,35.44
2022-09-20T13:19:55.882Z,36.24
2022-09-20T13:22:22.256Z,35.41
2022-09-20T13:24:48.643Z,35.88
2022-09-20T13:27:19.437Z,36.92
2022-09-20T13:29:46.041Z,36.92
2022-09-20T13:32:12.414Z,35.77
2022-09-20T13:34:38.793Z,36.55
2022-09-20T13:37:05.179Z,36.97
2022-09-20T13:39:31.558Z,36.84
2022-09-20T13:41:57.923Z,37.40
2022-09-20T13:44:24.309Z,37.70
2022-09-20T13:46:50.681Z,37.88
2022-09-20T13:49:17.043Z,36.78
2022-09-20T13:51:43.426Z,37.06
2022-09-20T13:54:09.806Z,36.61
2022-09-20T13:56:36.185Z,37.17
2022-09-20T13:59:02.555Z,37.73
2022-09-20T14:01:29.069Z,35.79
2022-09-20T14:03:55.509Z,36.28
2022-09-20T14:06:21.881Z,34.51
2022-09-20T14:08:48.265Z,35.40
2022-09-20T14:11:14.631Z,34.88
2022-09-20T14:13:41.010Z,34.01
2022-09-20T14:16:07.384Z,32.61
2022-09-20T14:18:33.743Z,33.53
2022-09-20T14:21:00.111Z,32.82
2022-09-20T14:23:26.573Z,33.04
2022-09-20T14:25:52.943Z,32.73
2022-09-20T14:28:19.316Z,31.87
2022-09-20T14:30:45.698Z,32.20
2022-09-20T14:33:12.084Z,32.17
2022-09-20T14:35:38.457Z,32.19
2022-09-20T14:38:04.850Z,32.32
2022-09-20T14:40:31.250Z,31.34
2022-09-20T14:42:57.679Z,31.26
2022-09-20T14:45:24.121Z,30.21
2022-09-20T14:47:50.586Z,31.75
2022-09-20T14:50:19.692Z,31.44
2022-09-20T14:52:46.092Z,31.29
2022-09-20T14:55:12.472Z,30.13
2022-09-20T14:57:38.841Z,29.76
2022-09-20T15:00:05.222Z,29.97
2022-09-20T15:02:31.629Z,29.48
2022-09-20T15:04:58.019Z,28.92
2022-09-20T15:07:24.386Z,28.54
2022-09-20T15:09:50.766Z,28.97
2022-09-20T15:12:17.150Z,28.42
2022-09-20T15:14:43.511Z,28.24
2022-09-20T15:17:09.985Z,27.67
2022-09-20T15:19:36.355Z,27.98
2022-09-20T15:22:02.735Z,27.11
2022-09-20T15:24:29.114Z,27.69
2022-09-20T15:26:55.580Z,26.34
2022-09-20T15:29:21.957Z,26.01
2022-09-20T15:31:48.389Z,26.80
2022-09-20T15:34:14.805Z,26.93
2022-09-20T15:36:41.193Z,26.86
2022-09-20T15:39:07.567Z,25.99
2022-09-20T15:41:33.953Z,25.24
2022-09-20T15:44:00.337Z,25.23
2022-09-20T15:46:26.737Z,25.22
2022-09-20T15:48:53.103Z,25.08
2022-09-20T15:51:19.468Z,25.19
2022-09-20T15:53:45.849Z,24.50
2022-09-20T15:56:12.232Z,24.69
2022-09-20T15:58:38.601Z,24.18
2022-09-20T16:01:05.061Z,23.97
2022-09-20T16:03:31.466Z,23.56
2022-09-20T16:06:01.979Z,23.74
2022-09-20T16:08:30.420Z,23.55
2022-09-20T16:10:56.788Z,23.86
2022-09-20T16:13:23.161Z,23.42
2022-09-20T16:15:49.563Z,23.06
2022-09-20T16:18:15.945Z,22.88
2022-09-20T16:20:42.339Z,22.74
2022-09-20T16:23:08.704Z,21.96
2022-09-20T16:25:35.086Z,21.23
2022-09-20T16:28:01.465Z,21.70
2022-09-20T16:30:27.841Z,21.93
2022-09-20T16:32:54.208Z,22.01
2022-09-20T16:35:20.596Z,21.44
2022-09-20T16:37:46.974Z,21.42
2022-09-20T16:40:13.379Z,21.32
2022-09-20T16:42:39.781Z,21.03
2022-09-20T16:45:06.157Z,21.21
2022-09-20T16:47:32.548Z,20.67
2022-09-20T16:49:58.923Z,20.43
2022-09-20T16:52:25.297Z,20.05
2022-09-20T16:54:51.664Z,20.11
2022-09-20T16:57:18.053Z,19.99
2022-09-20T16:59:44.434Z,19.87
2022-09-20T17:02:10.800Z,19.93
2022-09-20T17:04:37.189Z,19.43
2022-09-20T17:07:03.569Z,18.98
2022-09-20T17:09:29.938Z,19.34
2022-09-20T17:11:56.321Z,19.03
2022-09-20T17:14:22.687Z,18.90
2022-09-20T17:16:49.076Z,18.19
2022-09-20T17:19:15.463Z,18.64
2022-09-20T17:21:41.823Z,18.76
2022-09-20T17:24:08.209Z,18.20
2022-09-20T17:26:34.606Z,17.96
2022-09-20T17:29:00.980Z,18.19
2022-09-20T17:31:27.410Z,17.77
2022-09-20T17:33:53.854Z,17.30
2022-09-20T17:36:20.232Z,16.73
2022-09-20T17:38:46.613Z,17.09
2022-09-20T17:41:12.994Z,17.10
2022-09-20T17:43:39.433Z,16.78
2022-09-20T17:46:05.819Z,16.77
2022-09-20T17:48:32.195Z,16.61
2022-09-20T17:50:58.574Z,15.80
2022-09-20T17:53:24.952Z,15.57
2022-09-20T17:55:51.311Z,15.70
2022-09-20T17:58:17.674Z,15.37
2022-09-20T18:00:44.107Z,15.40
2022-09-20T18:03:10.510Z,14.88
2022-09-20T18:05:36.895Z,14.46
2022-09-20T18:08:03.273Z,14.53
2022-09-20T18:10:29.652Z,14.91
2022-09-20T18:12:56.038Z,14.71
2022-09-20T18:15:22.404Z,14.34
2022-09-20T18:17:53.826Z,13.99
2022-09-20T18:20:20.848Z,13.79
2022-09-20T18:22:47.221Z,13.57
2022-09-20T18:25:13.618Z,14.02
2022-09-20T18:27:39.980Z,13.17
2022-09-20T18:30:06.349Z,13.29
2022-09-20T18:32:32.733Z,13.59
2022-09-20T18:34:59.099Z,16.30
2022-09-20T18:37:25.472Z,17.72
2022-09-20T18:39:51.852Z,21.28
2022-09-20T18:42:18.216Z,18.68
2022-09-20T18:44:44.580Z,19.85
2022-09-20T18:47:10.955Z,21.50
2022-09-20T18:49:37.323Z,23.95
2022-09-20T18:52:03.708Z,48.39
2022-09-20T18:54:30.090Z,87.23
2022-09-20T18:56:56.462Z,54.85
2022-09-20T18:59:22.853Z,54.08
2022-09-20T19:01:49.298Z,52.66
2022-09-20T19:04:15.796Z,51.70
2022-09-20T19:06:42.176Z,54.12
2022-09-20T19:09:08.576Z,50.05
2022-09-20T19:11:34.944Z,48.00
2022-09-20T19:14:01.319Z,46.45
2022-09-20T19:16:27.761Z,43.58
2022-09-20T19:18:54.206Z,41.76
2022-09-20T19:21:20.633Z,39.63
2022-09-20T19:23:47.010Z,38.03
2022-09-20T19:26:18.371Z,36.91
2022-09-20T19:28:45.427Z,35.41
2022-09-20T19:31:11.804Z,34.69
2022-09-20T19:33:38.205Z,32.86
2022-09-20T19:36:04.584Z,31.66
2022-09-20T19:38:30.950Z,30.95
2022-09-20T19:40:57.315Z,30.51
2022-09-20T19:43:23.712Z,29.55
2022-09-20T19:45:50.070Z,28.85
2022-09-20T19:48:16.450Z,27.19
2022-09-20T19:50:42.819Z,26.91
2022-09-20T19:53:09.199Z,26.28
2022-09-20T19:55:35.621Z,25.06
2022-09-20T19:58:02.009Z,24.23
2022-09-20T20:00:28.398Z,23.80
2022-09-20T20:02:54.777Z,23.24
2022-09-20T20:05:21.281Z,22.45
2022-09-20T20:07:47.657Z,22.16
2022-09-20T20:10:14.038Z,21.22
2022-09-20T20:12:40.421Z,20.73
2022-09-20T20:15:06.798Z,20.49
2022-09-20T20:17:33.175Z,19.48
2022-09-20T20:19:59.555Z,19.18
2022-09-20T20:22:25.946Z,18.93
2022-09-20T20:24:52.329Z,18.29
2022-09-20T20:27:18.725Z,17.73
2022-09-20T20:29:45.116Z,17.93
2022-09-20T20:32:11.479Z,17.79
2022-09-20T20:34:37.852Z,16.36
2022-09-20T20:37:04.258Z,16.78
2022-09-20T20:39:30.641Z,15.35
2022-09-20T20:42:01.341Z,15.73
2022-09-20T20:44:28.418Z,15.36
2022-09-20T20:46:54.791Z,14.98
2022-09-20T20:49:21.160Z,15.42
2022-09-20T20:51:47.533Z,14.76
2022-09-20T20:54:13.906Z,14.52
2022-09-20T20:56:40.275Z,14.24
2022-09-20T20:59:06.745Z,13.11
2022-09-20T21:01:33.176Z,13.82
2022-09-20T21:03:59.568Z,13.12
2022-09-20T21:06:25.943Z,12.55
2022-09-20T21:08:52.303Z,12.73
2022-09-20T21:11:18.692Z,12.41
2022-09-20T21:13:45.073Z,12.22
2022-09-20T21:16:11.523Z,11.54
2022-09-20T21:18:37.990Z,11.18
2022-09-20T21:21:04.361Z,11.16
2022-09-20T21:23:30.741Z,10.42
2022-09-20T21:25:57.096Z,10.76
2022-09-20T21:28:23.465Z,10.90
2022-09-20T21:30:49.902Z,10.50
2022-09-20T21:33:16.290Z,9.84
2022-09-20T21:35:42.665Z,9.87
2022-09-20T21:38:09.023Z,9.81
2022-09-20T21:40:35.500Z,9.57
2022-09-20T21:43:01.889Z,9.46
2022-09-20T21:45:28.243Z,9.05
2022-09-20T21:47:54.607Z,9.09
2022-09-20T21:50:20.974Z,9.41
2022-09-20T21:52:47.336Z,8.89
2022-09-20T21:55:13.705Z,8.88
2022-09-20T21:57:40.069Z,8.68
2022-09-20T22:00:06.530Z,8.96
2022-09-20T22:02:32.917Z,8.57
2022-09-20T22:04:59.304Z,8.72
2022-09-20T22:07:25.748Z,8.28
2022-09-20T22:09:52.105Z,8.26
2022-09-20T22:12:18.473Z,8.36
2022-09-20T22:14:44.846Z,8.38
2022-09-20T22:17:11.210Z,8.02
2022-09-20T22:19:37.577Z,8.07
2022-09-20T22:22:03.945Z,7.88
2022-09-20T22:24:30.327Z,8.22
2022-09-20T22:26:56.702Z,7.93
2022-09-20T22:29:23.068Z,7.80
2022-09-20T22:31:49.441Z,7.68
2022-09-20T22:34:15.807Z,7.79
2022-09-20T22:36:42.166Z,7.71
2022-09-20T22:39:08.641Z,7.29
2022-09-20T22:41:35.037Z,7.21
2022-09-20T22:44:01.496Z,6.81
2022-09-20T22:46:27.859Z,7.20
2022-09-20T22:48:54.322Z,6.85
2022-09-20T22:51:20.726Z,6.74
2022-09-20T22:53:47.089Z,6.78
2022-09-20T22:56:13.458Z,6.81
2022-09-20T22:58:39.831Z,6.72
2022-09-20T23:01:06.280Z,6.68
2022-09-20T23:03:32.698Z,6.48
2022-09-20T23:05:59.111Z,6.28
2022-09-20T23:08:25.479Z,6.17
2022-09-20T23:10:51.848Z,6.12
2022-09-20T23:13:18.220Z,6.49
2022-09-20T23:15:44.581Z,5.83
2022-09-20T23:18:10.944Z,5.79
2022-09-20T23:20:37.347Z,6.00
2022-09-20T23:23:03.722Z,5.68
2022-09-20T23:25:30.076Z,6.10
2022-09-20T23:27:56.445Z,6.12
2022-09-20T23:30:22.813Z,6.03
2022-09-20T23:32:49.175Z,5.20
2022-09-20T23:35:15.542Z,5.60
2022-09-20T23:37:41.912Z,5.47
2022-09-20T23:40:08.308Z,5.32
2022-09-20T23:42:34.677Z,5.14
2022-09-20T23:45:01.114Z,5.33
2022-09-20T23:47:27.489Z,5.22
2022-09-20T23:49:53.843Z,5.10
2022-09-20T23:52:20.229Z,5.11
2022-09-20T23:54:46.589Z,4.77
2022-09-20T23:57:12.966Z,4.70
2022-09-20T23:59:39.326Z,4.82
